Южно-Петьегское

СКИДКИ НА СМАРТФОНЫ!

Карта отелей и гостиниц, располагающихся рядом с аэропортом Южно-Петьегское :

Южно-Петьегское Тюменская область 59° 16' 59.7612" N, 71° 42' 36.6588" E
Код аэродрома ИКАО
HEP9
Код аэродрома RU
ХЕП9
Координаты
N59.28327° E071.71018°
Превышение над уровнем моря
101
Основная полоса
Курс магнитный
Длина основной ВПП
Ширина основной ВПП
Покрытие основной ВПП
Твёрдое (бетон)
Освещение ВПП
Нет
Тип: 
Вертодром
Класс аэродрома: 
Принадлежность: 
ГА
Статус: 
Действующий
Сайт: 
E-mail аэродрома: 
Страна: 
Россия
Регион: 
Тюменская область
Город: 
Дополнительная информация: 
Оператор: нет данных. Подходы открытые, поблизости имеется вышка связи (Н=100 м).

Скидки на навигаторы!

Найти трансфер

С помощью этой формы Вы можете найти трансфер из аэропорта Южно-Петьегское в город, аэропорт или вокзал:

Погода в аэропортах:

Авиационная погода в аэропорту Новый

Регион: 
Погода METAR: 
UHHH 190100Z 22003MPS 160V250 9000 -SHRA SCT003 SCT017CB 20/20 Q0997 R23R/290045 NOSIG RMK QBB100 QFE742/0989
Время наблюдения
2022-08-19T01:00:00Z
Температура C
20.0
Точка росы
20.0
Направление ветра
220
Скорость ветра (узлы)
6
Метео видимость
5.59
Облачность
SCT
SCT
Нижняя граница облачности (футы)
300
1700
Явления погоды
-SHRA
Условия полета
VFR
Аэропорт подробнее: 
SCT – разбросанная отдельная облачность;
-SHRA - слабый ливневой дождь;

Авиационная погода в Батуми

Регион: 
Погода METAR: 
UGSB 190100Z 20006KT 170V230 6000 -RA SCT011 BKN020 23/22 Q1008 NOSIG
Время наблюдения
2022-08-19T01:00:00Z
Температура C
23.0
Точка росы
22.0
Направление ветра
200
Скорость ветра (узлы)
6
Метео видимость
3.73
Облачность
SCT
BKN
Нижняя граница облачности (футы)
1100
2000
Явления погоды
-RA
Условия полета
MVFR
SCT – разбросанная отдельная облачность; BKN – значительная (рассеянная, разорванная) облачность;
-RA - слабый дождь;

Авиационная погода в Сургуте

Регион: 
Погода METAR: 
USRR 190300Z 34004MPS 9999 -SHRA SCT010 BKN017CB 10/09 Q1021 R25/290060 NOSIG RMK QFE760
Время наблюдения
2022-08-19T03:00:00Z
Температура C
10.0
Точка росы
9.0
Направление ветра
340
Скорость ветра (узлы)
8
Метео видимость
6.21
Облачность
SCT
BKN
Нижняя граница облачности (футы)
1000
1700
Явления погоды
-SHRA
Условия полета
MVFR
Аэропорт подробнее: 
SCT – разбросанная отдельная облачность; BKN – значительная (рассеянная, разорванная) облачность;
-SHRA - слабый ливневой дождь;

Авиационная погода в Пскове

Регион: 
Погода METAR: 
ULOO 190100Z 00000MPS 3300 R19/P2000D BR NSC 16/16 Q1019 NOSIG RMK QFE760
Время наблюдения
2022-08-19T01:00:00Z
Температура C
16.0
Точка росы
16.0
Направление ветра
0
Скорость ветра (узлы)
0
Метео видимость
2.05
Облачность
CLR
Нижняя граница облачности (футы)
Явления погоды
BR
Условия полета
IFR
CLR — нет облаков ниже 3000 м
BR – дымка (видимость от 1 до 9 км);